createdAt,value
2017-07-19T00:02:27.495Z,85.90
2017-07-19T00:04:57.277Z,86.10
2017-07-19T00:07:25.889Z,86.00
2017-07-19T00:09:54.473Z,86.10
2017-07-19T00:12:22.814Z,86.70
2017-07-19T00:14:51.909Z,86.10
2017-07-19T00:17:20.287Z,86.00
2017-07-19T00:19:48.626Z,85.80
2017-07-19T00:22:17.727Z,85.30
2017-07-19T00:24:46.402Z,85.10
2017-07-19T00:27:14.758Z,85.10
2017-07-19T00:29:43.116Z,85.50
2017-07-19T00:32:12.396Z,85.50
2017-07-19T00:34:41.491Z,85.80
2017-07-19T00:37:10.799Z,85.80
2017-07-19T00:39:40.274Z,86.00
2017-07-19T00:42:08.694Z,85.90
2017-07-19T00:44:37.893Z,86.40
2017-07-19T00:47:08.520Z,85.80
2017-07-19T00:49:36.926Z,85.80
2017-07-19T00:52:05.625Z,85.90
2017-07-19T00:54:35.630Z,85.60
2017-07-19T00:57:04.929Z,86.00
2017-07-19T00:59:33.381Z,85.90
2017-07-19T01:02:02.204Z,85.60
2017-07-19T01:04:30.786Z,86.00
2017-07-19T01:06:59.568Z,86.00
2017-07-19T01:09:28.650Z,86.00
2017-07-19T01:11:58.171Z,85.80
2017-07-19T01:14:26.684Z,85.60
2017-07-19T01:16:56.151Z,85.00
2017-07-19T01:19:24.524Z,85.50
2017-07-19T01:21:52.880Z,85.60
2017-07-19T01:24:21.573Z,85.70
2017-07-19T01:26:49.913Z,86.00
2017-07-19T01:29:18.261Z,86.40
2017-07-19T01:31:47.795Z,86.60
2017-07-19T01:34:16.209Z,87.10
2017-07-19T01:36:44.603Z,87.30
2017-07-19T01:39:13.829Z,87.80
2017-07-19T01:41:42.165Z,87.90
2017-07-19T01:44:11.601Z,88.40
2017-07-19T01:46:41.083Z,88.60
2017-07-19T01:49:09.450Z,88.90
2017-07-19T01:51:38.592Z,89.10
2017-07-19T01:54:07.179Z,89.10
2017-07-19T01:56:35.613Z,89.80
2017-07-19T01:59:04.022Z,89.60
2017-07-19T02:01:33.421Z,90.20
2017-07-19T02:04:01.893Z,90.20
2017-07-19T02:06:30.352Z,90.40
2017-07-19T02:09:00.075Z,90.30
2017-07-19T02:11:28.545Z,90.30
2017-07-19T02:13:57.300Z,90.60
2017-07-19T02:16:26.086Z,90.60
2017-07-19T02:18:54.429Z,90.50
2017-07-19T02:21:24.544Z,90.80
2017-07-19T02:23:53.542Z,90.80
2017-07-19T02:26:21.884Z,90.90
2017-07-19T02:28:50.209Z,90.90
2017-07-19T02:31:19.768Z,90.90
2017-07-19T02:33:48.098Z,90.90
2017-07-19T02:36:16.466Z,91.00
2017-07-19T02:38:45.983Z,91.10
2017-07-19T02:41:14.316Z,91.10
2017-07-19T02:43:42.681Z,91.30
2017-07-19T02:46:11.281Z,91.30
2017-07-19T02:48:39.647Z,91.50
2017-07-19T02:51:08.062Z,91.30
2017-07-19T02:53:37.153Z,91.30
2017-07-19T02:56:05.677Z,91.40
2017-07-19T02:58:34.086Z,91.60
2017-07-19T03:01:02.904Z,91.60
2017-07-19T03:03:31.429Z,91.60
2017-07-19T03:05:59.896Z,91.60
2017-07-19T03:08:29.805Z,91.80
2017-07-19T03:10:58.285Z,91.70
2017-07-19T03:13:26.866Z,91.80
2017-07-19T03:15:55.596Z,91.80
2017-07-19T03:18:23.972Z,91.80
2017-07-19T03:20:52.298Z,92.00
2017-07-19T03:23:22.064Z,91.80
2017-07-19T03:25:50.366Z,91.80
2017-07-19T03:28:18.693Z,92.00
2017-07-19T03:30:47.457Z,92.00
2017-07-19T03:33:15.784Z,92.00
2017-07-19T03:35:44.167Z,92.10
2017-07-19T03:38:13.607Z,92.20
2017-07-19T03:40:41.936Z,92.10
2017-07-19T03:43:10.254Z,92.30
2017-07-19T03:45:38.963Z,92.40
2017-07-19T03:48:07.397Z,92.20
2017-07-19T03:50:35.809Z,92.30
2017-07-19T03:53:04.397Z,92.30
2017-07-19T03:55:33.762Z,92.40
2017-07-19T04:00:54.618Z,92.40
2017-07-19T04:03:23.043Z,92.30
2017-07-19T04:05:51.420Z,92.30
2017-07-19T04:08:20.073Z,92.40
2017-07-19T04:10:49.350Z,92.50
2017-07-19T04:13:17.731Z,92.40
2017-07-19T04:15:47.208Z,92.70
2017-07-19T04:18:16.321Z,92.40
2017-07-19T04:20:44.816Z,92.40
2017-07-19T04:23:14.370Z,92.20
2017-07-19T04:25:42.757Z,92.30
2017-07-19T04:28:11.181Z,92.10
2017-07-19T04:30:39.920Z,91.90
2017-07-19T04:33:08.360Z,92.00
2017-07-19T04:35:37.921Z,92.00
2017-07-19T04:38:06.478Z,91.90
2017-07-19T04:40:34.924Z,92.00
2017-07-19T04:43:04.193Z,91.80
2017-07-19T04:45:33.995Z,91.70
2017-07-19T04:48:02.373Z,91.70
2017-07-19T04:50:30.855Z,91.80
2017-07-19T04:52:59.450Z,91.60
2017-07-19T04:55:27.905Z,91.70
2017-07-19T04:57:56.316Z,91.70
2017-07-19T05:00:26.731Z,91.50
2017-07-19T05:02:55.127Z,91.50
2017-07-19T05:05:23.488Z,91.40
2017-07-19T05:07:53.254Z,91.20
2017-07-19T05:10:21.573Z,91.20
2017-07-19T05:12:49.916Z,91.30
2017-07-19T05:15:19.266Z,91.10
2017-07-19T05:17:47.601Z,91.10
2017-07-19T05:20:15.926Z,91.00
2017-07-19T05:22:44.304Z,90.70
2017-07-19T05:25:12.703Z,90.70
2017-07-19T05:27:41.046Z,90.60
2017-07-19T05:30:09.841Z,90.60
2017-07-19T05:32:38.248Z,90.60
2017-07-19T05:35:07.595Z,90.30
2017-07-19T05:37:36.308Z,90.10
2017-07-19T05:40:07.290Z,89.20
2017-07-19T05:42:35.724Z,89.20
2017-07-19T05:45:04.849Z,89.70
2017-07-19T05:47:33.242Z,89.50
2017-07-19T05:50:01.826Z,89.10
2017-07-19T05:52:31.520Z,88.40
2017-07-19T05:55:01.095Z,88.30
2017-07-19T05:57:29.890Z,87.80
2017-07-19T05:59:58.779Z,87.80
2017-07-19T06:02:27.517Z,87.00
2017-07-19T06:04:56.022Z,86.70
2017-07-19T06:07:24.702Z,86.10
2017-07-19T06:09:53.953Z,85.70
2017-07-19T06:12:22.304Z,85.20
2017-07-19T06:14:52.626Z,84.40
2017-07-19T06:17:20.970Z,84.40
2017-07-19T06:19:51.083Z,83.90
2017-07-19T06:22:19.746Z,83.80
2017-07-19T06:24:48.824Z,83.40
2017-07-19T06:27:17.188Z,83.30
2017-07-19T06:29:46.609Z,82.90
2017-07-19T06:32:14.937Z,83.60
2017-07-19T06:34:43.270Z,83.50
2017-07-19T06:37:12.132Z,84.00
2017-07-19T06:39:40.461Z,83.00
2017-07-19T06:42:09.731Z,82.70
2017-07-19T06:44:39.189Z,82.30
2017-07-19T06:47:07.517Z,82.30
2017-07-19T06:49:35.906Z,81.20
2017-07-19T06:52:05.180Z,80.70
2017-07-19T06:54:33.572Z,80.60
2017-07-19T06:57:02.049Z,79.80
2017-07-19T06:59:31.647Z,79.30
2017-07-19T07:02:01.072Z,79.40
2017-07-19T07:04:29.502Z,79.40
2017-07-19T07:06:58.571Z,78.10
2017-07-19T07:09:27.785Z,77.60
2017-07-19T07:11:56.217Z,77.50
2017-07-19T07:14:26.099Z,76.30
2017-07-19T07:16:54.434Z,76.30
2017-07-19T07:19:22.765Z,76.00
2017-07-19T07:21:51.655Z,75.20
2017-07-19T07:24:20.727Z,75.90
2017-07-19T07:26:50.002Z,75.70
2017-07-19T07:29:19.023Z,75.20
2017-07-19T07:31:47.354Z,74.50
2017-07-19T07:34:15.718Z,73.40
2017-07-19T07:36:44.299Z,74.20
2017-07-19T07:39:12.637Z,74.00
2017-07-19T07:41:41.007Z,74.40
2017-07-19T07:44:11.437Z,74.50
2017-07-19T07:46:41.252Z,74.70
2017-07-19T07:49:10.654Z,74.40
2017-07-19T07:51:39.269Z,74.70
2017-07-19T07:54:07.866Z,74.20
2017-07-19T07:56:36.362Z,74.20
2017-07-19T07:59:05.470Z,74.20
2017-07-19T08:01:33.912Z,74.50
2017-07-19T08:04:03.115Z,74.90
2017-07-19T08:06:33.808Z,74.30
2017-07-19T08:09:03.231Z,74.40
2017-07-19T08:11:32.029Z,74.30
2017-07-19T08:14:00.546Z,74.40
2017-07-19T08:16:29.953Z,74.40
2017-07-19T08:21:26.384Z,74.00
2017-07-19T08:23:54.778Z,74.10
2017-07-19T08:26:26.898Z,74.40
2017-07-19T08:28:56.253Z,74.10
2017-07-19T08:31:25.660Z,73.60
2017-07-19T08:33:54.046Z,74.00
2017-07-19T08:36:26.710Z,74.20
2017-07-19T08:38:55.059Z,73.90
2017-07-19T08:41:24.217Z,73.10
2017-07-19T08:43:53.358Z,72.60
2017-07-19T08:46:21.683Z,72.60
2017-07-19T08:48:50.346Z,73.10
2017-07-19T08:51:20.034Z,73.10
2017-07-19T08:53:49.116Z,73.00
2017-07-19T08:56:17.453Z,72.80
2017-07-19T08:58:47.925Z,72.00
2017-07-19T09:01:16.274Z,72.10
2017-07-19T09:03:44.639Z,71.60
2017-07-19T09:06:13.637Z,71.70
2017-07-19T09:08:41.974Z,71.60
2017-07-19T09:11:10.315Z,71.40
2017-07-19T09:13:39.367Z,71.50
2017-07-19T09:16:07.719Z,70.70
2017-07-19T09:18:37.114Z,70.50
2017-07-19T09:21:05.881Z,70.30
2017-07-19T09:23:34.383Z,70.70
2017-07-19T09:26:03.891Z,69.90
2017-07-19T09:28:32.863Z,70.20
2017-07-19T09:31:01.439Z,69.90
2017-07-19T09:33:29.977Z,69.50
2017-07-19T09:35:58.759Z,69.30
2017-07-19T09:38:27.871Z,69.60
2017-07-19T09:40:56.327Z,69.90
2017-07-19T09:43:24.712Z,70.30
2017-07-19T09:45:53.039Z,69.60
2017-07-19T09:48:21.418Z,68.00
2017-07-19T09:50:50.002Z,67.50
2017-07-19T09:53:18.332Z,66.90
2017-07-19T09:55:46.685Z,66.00
2017-07-19T09:58:15.145Z,64.00
2017-07-19T10:00:43.523Z,59.70
2017-07-19T10:03:12.617Z,59.30
2017-07-19T10:05:41.529Z,59.30
2017-07-19T10:08:09.887Z,58.40
2017-07-19T10:10:38.324Z,58.00
2017-07-19T10:13:07.391Z,57.20
2017-07-19T10:15:35.845Z,57.30
2017-07-19T10:18:04.329Z,56.90
2017-07-19T10:20:32.985Z,56.80
2017-07-19T10:23:02.190Z,54.00
2017-07-19T10:25:31.010Z,54.00
2017-07-19T10:28:00.894Z,53.80
2017-07-19T10:30:29.408Z,53.80
2017-07-19T10:32:57.876Z,52.40
2017-07-19T10:35:27.404Z,53.40
2017-07-19T10:37:55.828Z,50.90
2017-07-19T10:40:24.232Z,51.20
2017-07-19T10:42:52.611Z,49.00
2017-07-19T10:45:20.943Z,48.90
2017-07-19T10:47:49.306Z,48.80
2017-07-19T10:50:17.988Z,48.30
2017-07-19T10:52:47.120Z,48.30
2017-07-19T10:55:15.451Z,49.00
2017-07-19T10:57:43.980Z,49.50
2017-07-19T11:00:12.344Z,50.30
2017-07-19T11:02:40.686Z,49.50
2017-07-19T11:05:10.962Z,50.40
2017-07-19T11:07:39.283Z,50.40
2017-07-19T11:10:07.724Z,51.00
2017-07-19T11:12:37.139Z,50.80
2017-07-19T11:15:05.652Z,50.70
2017-07-19T11:17:36.085Z,48.70
2017-07-19T11:20:05.037Z,48.70
2017-07-19T11:22:34.280Z,49.90
2017-07-19T11:25:02.842Z,49.90
2017-07-19T11:27:31.654Z,49.10
2017-07-19T11:30:00.472Z,48.20
2017-07-19T11:32:29.031Z,47.40
2017-07-19T11:34:59.816Z,47.40
2017-07-19T11:37:28.293Z,46.50
2017-07-19T11:39:57.529Z,47.10
2017-07-19T11:42:27.089Z,47.00
2017-07-19T11:44:55.402Z,47.60
2017-07-19T11:47:25.421Z,47.10
2017-07-19T11:49:54.070Z,47.10
2017-07-19T11:52:22.420Z,46.10
2017-07-19T11:54:52.205Z,45.10
2017-07-19T11:57:20.796Z,45.50
2017-07-19T11:59:49.177Z,45.20
2017-07-19T12:02:17.510Z,46.20
2017-07-19T12:04:45.888Z,45.90
2017-07-19T12:07:14.210Z,46.20
2017-07-19T12:09:42.548Z,45.80
2017-07-19T12:12:11.180Z,45.60
2017-07-19T12:14:39.583Z,45.50
2017-07-19T12:17:08.027Z,46.30
2017-07-19T12:19:36.934Z,46.60
2017-07-19T12:22:05.298Z,47.10
2017-07-19T12:24:33.814Z,47.00
2017-07-19T12:27:02.476Z,45.00
2017-07-19T12:29:30.905Z,42.90
2017-07-19T12:31:59.484Z,44.70
2017-07-19T12:34:29.053Z,45.20
2017-07-19T12:36:58.122Z,45.40
2017-07-19T12:39:26.653Z,45.20
2017-07-19T12:41:57.867Z,45.10
2017-07-19T12:44:27.575Z,45.40
2017-07-19T12:46:55.984Z,45.40
2017-07-19T12:49:29.050Z,46.50
2017-07-19T12:51:57.634Z,48.80
2017-07-19T12:54:26.555Z,48.30
2017-07-19T12:56:55.478Z,46.30
2017-07-19T12:59:23.975Z,46.60
2017-07-19T13:01:52.349Z,48.30
2017-07-19T13:04:21.300Z,50.00
2017-07-19T13:06:50.394Z,51.80
2017-07-19T13:09:18.800Z,51.80
2017-07-19T13:11:47.248Z,52.80
2017-07-19T13:14:15.636Z,53.20
2017-07-19T13:16:44.017Z,52.90
2017-07-19T13:19:13.325Z,52.50
2017-07-19T13:21:42.405Z,52.70
2017-07-19T13:24:11.744Z,52.70
2017-07-19T13:26:40.470Z,53.80
2017-07-19T13:29:08.942Z,52.30
2017-07-19T13:31:37.353Z,52.50
2017-07-19T13:34:06.195Z,54.00
2017-07-19T13:36:34.572Z,52.60
2017-07-19T13:39:03.172Z,52.40
2017-07-19T13:41:32.681Z,50.60
2017-07-19T13:44:01.148Z,47.50
2017-07-19T13:46:29.935Z,46.40
2017-07-19T13:48:58.995Z,46.10
2017-07-19T13:51:27.670Z,48.70
2017-07-19T13:53:56.541Z,49.60
2017-07-19T13:56:26.259Z,51.40
2017-07-19T13:58:54.771Z,53.00
2017-07-19T14:01:23.117Z,55.20
2017-07-19T14:03:51.908Z,55.50
2017-07-19T14:06:20.214Z,55.30
2017-07-19T14:11:10.935Z,55.60
2017-07-19T14:13:41.260Z,55.80
2017-07-19T14:16:09.605Z,56.30
2017-07-19T14:18:38.329Z,56.80
2017-07-19T14:21:06.760Z,56.30
2017-07-19T14:23:35.110Z,56.80
2017-07-19T14:26:03.905Z,56.40
2017-07-19T14:28:32.480Z,56.00
2017-07-19T14:31:01.152Z,57.00
2017-07-19T14:33:30.279Z,58.10
2017-07-19T14:35:58.726Z,56.80
2017-07-19T14:38:27.362Z,57.00
2017-07-19T14:40:57.463Z,56.60
2017-07-19T14:43:28.038Z,56.50
2017-07-19T14:45:56.478Z,56.30
2017-07-19T14:48:31.816Z,56.80
2017-07-19T14:51:00.380Z,56.80
2017-07-19T14:53:29.658Z,56.20
2017-07-19T14:55:58.254Z,56.60
2017-07-19T14:58:26.757Z,57.20
2017-07-19T15:00:56.597Z,56.30
2017-07-19T15:03:24.963Z,56.30
2017-07-19T15:05:53.315Z,56.50
2017-07-19T15:08:22.028Z,55.80
2017-07-19T15:10:50.324Z,56.50
2017-07-19T15:13:18.689Z,57.10
2017-07-19T15:15:47.635Z,56.20
2017-07-19T15:18:15.985Z,56.20
2017-07-19T15:20:44.350Z,58.40
2017-07-19T15:23:12.901Z,59.70
2017-07-19T15:25:41.242Z,59.40
2017-07-19T15:28:09.578Z,59.90
2017-07-19T15:30:37.934Z,60.90
2017-07-19T15:33:06.402Z,62.20
2017-07-19T15:35:34.756Z,61.80
2017-07-19T15:38:03.548Z,62.30
2017-07-19T15:40:33.294Z,62.60
2017-07-19T15:43:01.748Z,62.60
2017-07-19T15:45:31.363Z,63.00
2017-07-19T15:48:00.039Z,64.00
2017-07-19T15:50:28.830Z,63.80
2017-07-19T15:52:57.979Z,62.90
2017-07-19T15:55:28.951Z,61.60
2017-07-19T15:57:57.768Z,60.30
2017-07-19T16:00:26.885Z,60.40
2017-07-19T16:02:56.125Z,60.80
2017-07-19T16:05:24.674Z,61.40
2017-07-19T16:07:53.688Z,61.70
2017-07-19T16:10:21.999Z,63.20
2017-07-19T16:12:50.397Z,62.60
2017-07-19T16:15:19.514Z,62.60
2017-07-19T16:17:47.841Z,64.00
2017-07-19T16:20:17.114Z,63.40
2017-07-19T16:22:46.733Z,62.80
2017-07-19T16:25:15.100Z,62.70
2017-07-19T16:27:43.409Z,62.60
2017-07-19T16:30:13.294Z,62.60
2017-07-19T16:32:41.634Z,64.40
2017-07-19T16:35:09.949Z,65.00
2017-07-19T16:37:39.257Z,66.40
2017-07-19T16:40:07.628Z,66.30
2017-07-19T16:42:36.005Z,66.10
2017-07-19T16:45:04.910Z,66.80
2017-07-19T16:47:33.351Z,66.80
2017-07-19T16:50:01.892Z,66.70
2017-07-19T16:52:31.036Z,66.30
2017-07-19T16:55:00.541Z,67.10
2017-07-19T16:57:30.509Z,67.60
2017-07-19T16:59:59.363Z,67.50
2017-07-19T17:02:27.804Z,68.60
2017-07-19T17:04:56.564Z,68.40
2017-07-19T17:07:24.944Z,69.00
2017-07-19T17:09:54.219Z,70.50
2017-07-19T17:12:22.555Z,71.30
2017-07-19T17:14:51.962Z,71.60
2017-07-19T17:17:21.671Z,72.60
2017-07-19T17:19:50.018Z,72.60
2017-07-19T17:22:18.876Z,73.50
2017-07-19T17:24:47.218Z,73.60
2017-07-19T17:27:15.532Z,75.00
2017-07-19T17:29:45.124Z,74.60
2017-07-19T17:32:13.481Z,74.90
2017-07-19T17:34:41.841Z,74.90
2017-07-19T17:37:10.642Z,74.80
2017-07-19T17:39:39.002Z,75.30
2017-07-19T17:42:07.409Z,75.40
2017-07-19T17:44:36.180Z,76.30
2017-07-19T17:47:04.586Z,76.30
2017-07-19T17:49:33.172Z,77.00
2017-07-19T17:52:02.398Z,77.30
2017-07-19T17:54:31.412Z,78.50
2017-07-19T17:57:00.744Z,78.50
2017-07-19T17:59:29.193Z,79.00
2017-07-19T18:01:57.652Z,79.90
2017-07-19T18:04:26.002Z,80.10
2017-07-19T18:06:55.083Z,80.20
2017-07-19T18:09:23.420Z,80.80
2017-07-19T18:11:52.506Z,81.50
2017-07-19T18:14:21.313Z,81.50
2017-07-19T18:16:49.624Z,82.60
2017-07-19T18:19:18.717Z,82.30
2017-07-19T18:21:48.223Z,82.50
2017-07-19T18:24:16.582Z,82.40
2017-07-19T18:26:44.908Z,82.50
2017-07-19T18:29:15.093Z,82.60
2017-07-19T18:31:48.915Z,82.80
2017-07-19T18:34:18.548Z,83.70
2017-07-19T18:36:46.874Z,83.00
2017-07-19T18:39:15.213Z,82.90
2017-07-19T18:41:43.749Z,83.20
2017-07-19T18:44:12.119Z,83.80
2017-07-19T18:46:40.512Z,83.90
2017-07-19T18:49:09.689Z,84.10
2017-07-19T18:51:38.076Z,84.10
2017-07-19T18:54:07.242Z,84.20
2017-07-19T18:56:35.875Z,84.20
2017-07-19T18:59:04.218Z,84.20
2017-07-19T19:01:32.565Z,84.80
2017-07-19T19:04:01.391Z,84.90
2017-07-19T19:06:29.866Z,84.90
2017-07-19T19:09:00.211Z,84.70
2017-07-19T19:11:30.120Z,84.90
2017-07-19T19:13:58.539Z,84.90
2017-07-19T19:16:26.909Z,85.00
2017-07-19T19:18:55.340Z,85.10
2017-07-19T19:21:23.672Z,85.10
2017-07-19T19:23:52.010Z,85.30
2017-07-19T19:26:22.008Z,85.40
2017-07-19T19:28:50.352Z,85.30
2017-07-19T19:31:18.667Z,85.40
2017-07-19T19:33:47.755Z,85.80
2017-07-19T19:36:16.103Z,85.60
2017-07-19T19:38:44.515Z,86.00
2017-07-19T19:41:13.270Z,86.30
2017-07-19T19:43:41.583Z,86.60
2017-07-19T19:46:09.896Z,86.60
2017-07-19T19:48:38.650Z,86.80
2017-07-19T19:51:07.104Z,86.80
2017-07-19T19:53:36.401Z,86.80
2017-07-19T19:56:04.938Z,86.70
2017-07-19T19:58:34.077Z,87.30
2017-07-19T20:01:02.569Z,87.20
2017-07-19T20:03:31.545Z,87.60
2017-07-19T20:06:01.111Z,87.70
2017-07-19T20:08:29.736Z,87.80
2017-07-19T20:10:58.474Z,87.50
2017-07-19T20:13:26.814Z,87.80
2017-07-19T20:15:57.003Z,88.20
2017-07-19T20:18:25.460Z,88.20
2017-07-19T20:20:53.795Z,88.80
2017-07-19T20:23:22.901Z,89.70
2017-07-19T20:25:52.831Z,89.70
2017-07-19T20:28:21.434Z,90.00
2017-07-19T20:30:49.731Z,90.20
2017-07-19T20:33:18.729Z,90.10
2017-07-19T20:35:47.980Z,90.20
2017-07-19T20:38:16.316Z,90.40
2017-07-19T20:40:45.143Z,90.70
2017-07-19T20:43:20.937Z,90.60
2017-07-19T20:45:50.458Z,91.10
2017-07-19T20:48:18.953Z,91.00
2017-07-19T20:50:47.277Z,91.30
2017-07-19T20:53:15.967Z,92.00
2017-07-19T20:55:44.282Z,92.70
2017-07-19T20:58:13.487Z,93.00
2017-07-19T21:00:42.184Z,93.00
2017-07-19T21:03:10.508Z,93.90
2017-07-19T21:05:38.847Z,94.20
2017-07-19T21:08:07.716Z,95.10
2017-07-19T21:10:36.073Z,95.60
2017-07-19T21:13:05.652Z,96.00
2017-07-19T21:15:34.761Z,96.50
2017-07-19T21:18:03.141Z,96.90
2017-07-19T21:20:32.253Z,97.80
2017-07-19T21:23:00.936Z,97.70
2017-07-19T21:25:29.349Z,97.90
2017-07-19T21:27:57.835Z,98.20
2017-07-19T21:30:26.565Z,98.30
2017-07-19T21:32:54.910Z,98.50
2017-07-19T21:35:23.232Z,98.80
2017-07-19T21:37:51.744Z,98.80
2017-07-19T21:40:20.087Z,99.00
2017-07-19T21:42:48.429Z,99.10
2017-07-19T21:45:17.317Z,99.20
2017-07-19T21:47:45.633Z,98.90
2017-07-19T21:50:13.992Z,99.10
2017-07-19T21:52:42.688Z,99.20
2017-07-19T21:55:11.086Z,99.50
2017-07-19T21:57:39.436Z,99.00
2017-07-19T22:00:08.344Z,99.30
2017-07-19T22:02:36.701Z,99.20
2017-07-19T22:05:05.082Z,99.40
2017-07-19T22:07:34.067Z,99.40
2017-07-19T22:10:02.449Z,99.50
2017-07-19T22:12:31.620Z,99.40
2017-07-19T22:15:03.182Z,99.50
2017-07-19T22:17:31.626Z,99.40
2017-07-19T22:20:00.833Z,99.70
2017-07-19T22:22:30.363Z,99.70
2017-07-19T22:24:58.714Z,99.70
2017-07-19T22:27:27.069Z,99.90
2017-07-19T22:29:55.785Z,99.90
2017-07-19T22:32:24.133Z,99.90
2017-07-19T22:34:52.452Z,99.90
2017-07-19T22:37:21.242Z,99.90
2017-07-19T22:39:49.573Z,99.90
2017-07-19T22:42:18.664Z,99.90
2017-07-19T22:44:47.636Z,99.90
2017-07-19T22:47:16.738Z,99.90
2017-07-19T22:49:45.061Z,99.90
2017-07-19T22:52:15.104Z,99.90
2017-07-19T22:54:53.237Z,99.90
2017-07-19T22:57:24.523Z,99.90
2017-07-19T22:59:52.870Z,99.90
2017-07-19T23:02:21.179Z,99.90
2017-07-19T23:04:50.347Z,99.90
2017-07-19T23:07:19.704Z,99.90
2017-07-19T23:09:48.023Z,99.90
2017-07-19T23:12:16.641Z,99.90
2017-07-19T23:14:44.985Z,99.90
2017-07-19T23:17:14.198Z,99.90
2017-07-19T23:19:43.389Z,99.90
2017-07-19T23:22:11.723Z,99.90
2017-07-19T23:24:41.020Z,99.90
2017-07-19T23:27:10.183Z,99.90
2017-07-19T23:29:39.274Z,99.90
2017-07-19T23:32:07.679Z,99.90
2017-07-19T23:34:37.205Z,99.90
2017-07-19T23:37:05.541Z,99.90
2017-07-19T23:39:33.930Z,99.90
2017-07-19T23:42:03.886Z,99.90
2017-07-19T23:44:32.208Z,99.90
2017-07-19T23:47:01.324Z,99.90
2017-07-19T23:49:30.058Z,99.90
2017-07-19T23:52:00.184Z,99.90
2017-07-19T23:54:28.693Z,99.90
2017-07-19T23:56:58.191Z,99.90
2017-07-19T23:59:27.339Z,99.90
